Station: Portable Rfsnsw52  

  Atmospheric Gas Attenuation - ITU Rec 676-11   ----------------- dB/100km -----------------
Date Time Temp RH % AH g/m3 Dew Point Wind Direction Speed kph Gust kph Barometer mB Rainfall Since 9am 24GHz 47GHz 76GHz 122GHz 134GHz 241GHz
08/05 12:20 18 52 7.99 8.1 26 33 1013.1 0 18.1 23.8 35.5 92.9 85.7 294.6
08/05 12:10 17.4 56 8.3 8.7 28 33 1013.1 0 18.8 24.4 36.9 96.8 90.2 310.3
08/05 12:00 17.6 57 8.55 9 28 30 1013.1 0 19.3 24.7 37.8 99.0 93.1 320.4
08/05 11:50 17.1 56 8.15 8.2 30 37 1013.1 0 18.5 24.3 36.5 95.6 88.7 304.9
08/05 11:40 16.5 61 8.57 9 28 32 1013.1 0 19.4 25.1 38.3 100.6 94.7 325.7
08/05 11:30 16.9 59 8.49 9 28 32 1013.1 0 19.2 24.8 37.9 99.3 93.2 320.6
08/05 11:20 16.9 60 8.63 9.1 32 37 1013.1 0 19.5 25.1 38.4 100.7 94.9 326.8
08/05 11:10 16.9 59 8.49 9 28 32 1013.1 0 19.2 24.8 37.9 99.3 93.2 320.6
08/05 11:00 16.2 62 8.55 8.9 28 32 1013.1 0 19.4 25.1 38.4 100.8 94.8 326.1
08/05 10:50 15.9 62 8.4 8.6 26 32 1013.1 0 19.1 25.0 38.0 99.6 93.2 320.6
08/05 10:40 15.9 63 8.53 8.9 30 32 1013.1 0 19.3 25.2 38.5 101.0 94.9 326.4
08/05 10:30 15.6 64 8.51 8.9 28 32 1013.1 0 19.3 25.2 38.5 101.1 95.0 326.8
08/05 10:20 15 66 8.46 8.7 26 30 1013.1 0 19.2 25.3 38.6 101.4 95.1 327.0
08/05 10:10 14.2 69 8.43 8.7 26 30 1013.1 0 19.2 25.5 38.9 102.1 95.7 328.9
08/05 10:00 13.8 70 8.34 8.5 26 30 1013.1 0 19.0 25.5 38.8 101.7 95.0 326.5
08/05 09:50 13.3 72 8.32 8.5 26 30 1013.1 0 19.0 25.6 38.9 102.1 95.3 327.6
08/05 09:40 13.1 73 8.33 8.5 22 26 1013.1 0 19.0 25.7 39.1 102.5 95.7 328.9
08/05 09:30 12.6 76 8.41 8.5 24 30 1013.1 0 19.2 25.9 39.6 104.0 97.4 334.8
08/05 09:20 12.5 74 8.14 8.1 26 30 1013.1 0 18.7 25.5 38.6 101.2 93.9 322.6
08/05 09:10 12.1 77 8.26 8.2 26 28 1013.1 0 18.9 25.8 39.3 103.0 96.0 329.9
08/05 09:00 11.7 78 8.16 8.1 26 30 1013.1 0 18.7 25.8 39.1 102.5 95.2 326.9
08/05 08:50 11.4 78 8.01 7.8 26 32 1013.1 0 18.4 25.6 38.6 101.2 93.5 321.1
08/05 08:40 10.8 80 7.91 7.5 22 28 1013.1 0 18.3 25.6 38.5 100.9 92.9 318.9
08/05 08:30 10.5 82 7.95 7.6 19 22 1013.1 0 18.4 25.8 38.8 101.7 93.8 322.0
08/05 08:20 10.2 82 7.81 7.2 22 28 1013.1 0 18.1 25.6 38.4 100.6 92.3 316.6
08/05 08:10 10 82 7.71 7.1 22 28 1013.1 0 17.9 25.5 38.1 99.7 91.2 312.7
08/05 08:00 9.7 83 7.65 7 20 24 1013.1 0 17.7 25.5 37.9 99.5 90.7 311.0
08/05 07:50 9.5 84 7.65 6.9 20 22 1013.1 0 17.8 25.6 38.0 99.7 91.0 311.8
08/05 07:40 9.4 83 7.51 6.7 20 22 1013.1 0 17.5 25.4 37.5 98.3 89.2 305.6
08/05 07:30 9.3 83 7.46 6.6 19 20 1013.1 0 17.4 25.3 37.4 97.9 88.6 303.7
08/05 07:20 9.2 84 7.5 6.6 20 20 1013.1 0 17.4 25.4 37.6 98.5 89.3 305.9
08/05 07:10 9.1 84 7.46 6.5 20 22 1013.1 0 17.4 25.4 37.5 98.2 88.9 304.4
08/05 07:00 9.2 84 7.5 6.6 20 22 1013.1 0 17.4 25.4 37.6 98.5 89.3 305.9
08/05 06:50 9.5 82 7.47 6.6 22 26 1013.1 0 17.4 25.3 37.3 97.8 88.5 303.4
08/05 06:40 9.7 80 7.38 6.5 24 26 1013.1 0 17.2 25.1 36.8 96.5 87.1 298.4
08/05 06:30 9.9 79 7.38 6.5 22 24 1013.1 0 17.2 25.0 36.8 96.3 86.9 297.6
08/05 06:20 10 78 7.33 6.4 20 24 1013.1 0 17.0 24.9 36.5 95.6 86.1 294.9
08/05 06:10 10.1 78 7.38 6.4 22 26 1013.1 0 17.1 25.0 36.7 96.0 86.6 296.8
08/05 06:00 10.1 78 7.38 6.4 22 24 1013.1 0 17.1 25.0 36.7 96.0 86.6 296.8
08/05 05:50 10.2 77 7.33 6.3 20 26 1013.1 0 17.0 24.9 36.4 95.4 85.9 294.2
08/05 05:40 10.2 77 7.33 6.3 22 26 1013.1 0 17.0 24.9 36.4 95.4 85.9 294.2
08/05 05:30 10.3 76 7.28 6.2 22 24 1013.1 0 16.9 24.7 36.2 94.7 85.1 291.5
08/05 05:20 10.3 74 7.09 6 22 28 1013.1 0 16.5 24.4 35.4 92.7 82.6 282.7
08/05 05:10 10.1 76 7.19 6 20 22 1013.1 0 16.7 24.7 35.9 94.0 84.1 288.0
08/05 05:00 10 76 7.14 6 19 22 1013.1 0 16.6 24.6 35.7 93.6 83.6 286.1
08/05 04:50 10 75 7.05 5.9 19 20 1013.1 0 16.4 24.5 35.4 92.6 82.4 282.0
08/05 04:40 10 74 6.96 5.7 19 20 1013.1 0 16.2 24.3 35.0 91.7 81.2 277.8
08/05 04:30 10 74 6.96 5.6 19 20 1013.1 0 16.2 24.3 35.0 91.7 81.2 277.8
08/05 04:20 9.9 75 7 5.7 19 20 1013.1 0 16.3 24.4 35.2 92.2 81.9 280.0
08/05 04:10 9.9 74 6.91 5.6 17 19 1013.1 0 16.1 24.3 34.9 91.3 80.7 275.9
08/05 04:00 9.8 75 6.96 5.6 17 19 1013.1 0 16.3 24.4 35.1 91.9 81.4 278.5
08/05 03:50 9.8 74 6.87 5.4 17 20 1013.1 0 16.1 24.2 34.8 91.0 80.3 274.4
08/05 03:40 9.7 75 6.92 5.5 17 19 1013.1 0 16.2 24.3 35.0 91.6 81.0 277.0
08/05 03:30 9.6 74 6.78 5.3 19 22 1013.1 0 15.9 24.1 34.5 90.2 79.3 271.0
08/05 03:20 9.5 74 6.74 5.2 19 20 1013.1 0 15.8 24.1 34.4 89.9 78.9 269.5
08/05 03:10 9.4 74 6.69 5 19 20 1013.1 0 15.7 24.0 34.2 89.5 78.3 267.5
08/05 03:00 9.3 75 6.74 5.2 17 19 1013.1 0 15.8 24.2 34.5 90.2 79.1 270.2
08/05 02:50 9.5 74 6.74 5.1 17 20 1013.1 0 15.8 24.1 34.4 89.9 78.9 269.5
08/05 02:40 9.5 73 6.65 5 19 20 1013.1 0 15.6 24.0 34.0 89.0 77.7 265.4
08/05 02:30 9.4 73 6.6 4.9 17 19 1013.1 0 15.5 23.9 33.9 88.6 77.1 263.4
08/05 02:20 9.4 73 6.6 4.8 19 19 1013.1 0 15.5 23.9 33.9 88.6 77.1 263.4
08/05 02:10 9.3 73 6.56 4.7 17 19 1013.1 0 15.4 23.9 33.8 88.3 76.7 262.0
08/05 02:00 9.2 72 6.43 4.5 17 20 1013.1 0 15.1 23.7 33.3 87.0 75.1 256.4
08/05 01:50 9 74 6.53 4.6 17 20 1013.1 0 15.4 23.9 33.8 88.3 76.6 261.6
08/05 01:40 8.8 75 6.53 4.7 13 15 1013.1 0 15.4 24.0 33.8 88.5 76.8 262.2
08/05 01:30 8.8 76 6.62 4.9 11 13 1013.1 0 15.6 24.1 34.2 89.5 78.0 266.4
08/05 01:20 8.9 75 6.57 4.8 13 15 1013.1 0 15.5 24.0 34.0 88.8 77.2 263.7
08/05 01:10 8.9 74 6.48 4.6 13 15 1013.1 0 15.3 23.8 33.6 87.9 76.1 259.6
08/05 01:00 9 73 6.44 4.5 11 13 1013.1 0 15.2 23.8 33.4 87.3 75.5 257.5
08/05 00:50 8.9 74 6.48 4.5 11 13 1013.1 0 15.3 23.8 33.6 87.9 76.1 259.6
08/05 00:40 8.8 74 6.44 4.5 11 15 1013.1 0 15.2 23.8 33.5 87.6 75.7 258.1
08/05 00:30 8.8 73 6.36 4.2 13 13 1013.1 0 15.0 23.7 33.2 86.7 74.6 254.5
08/05 00:10 8.7 72 6.23 4 13 15 1013.1 0 14.7 23.5 32.7 85.5 73.0 248.9
08/05 00:00 8.7 72 6.23 3.9 13 15 1013.1 0 14.7 23.5 32.7 85.5 73.0 248.9
07/05 23:50 8.7 72 6.23 3.9 15 17 1013.1 0 14.7 23.5 32.7 85.5 73.0 248.9
07/05 23:40 8.6 73 6.28 4.1 15 17 1013.1 0 14.8 23.6 32.9 86.1 73.8 251.5
07/05 23:30 8.5 74 6.32 4.1 15 15 1013.1 0 14.9 23.7 33.1 86.6 74.4 253.6
07/05 23:20 8.5 72 6.15 3.8 15 15 1013.1 0 14.6 23.4 32.5 84.8 72.2 245.9
07/05 23:10 8.5 73 6.24 3.9 15 17 1013.1 0 14.8 23.6 32.8 85.8 73.3 250.0
07/05 23:00 8.5 72 6.15 3.8 13 15 1013.1 0 14.6 23.4 32.5 84.8 72.2 245.9
07/05 22:50 8.5 71 6.06 3.6 15 17 1013.1 0 14.4 23.3 32.1 83.9 71.0 241.8
07/05 22:40 8.4 73 6.2 3.8 13 13 1013.1 0 14.7 23.5 32.7 85.5 72.9 248.5
07/05 22:30 8.3 73 6.16 3.7 13 15 1013.1 0 14.6 23.5 32.6 85.2 72.5 247.0
07/05 22:20 8.2 74 6.2 3.8 11 13 1013.1 0 14.7 23.6 32.8 85.7 73.1 249.1
07/05 22:10 8 75 6.2 3.8 11 13 1013.1 0 14.7 23.6 32.9 85.9 73.3 249.7
07/05 22:00 7.8 75 6.12 3.7 9 11 1013.1 0 14.5 23.6 32.6 85.3 72.4 246.7
07/05 21:50 7.7 76 6.17 3.7 11 13 1013.1 0 14.6 23.7 32.9 85.9 73.2 249.3
07/05 21:40 7.8 75 6.12 3.7 13 15 1013.1 0 14.5 23.6 32.6 85.3 72.4 246.7
07/05 21:30 7.6 75 6.04 3.5 13 13 1013.1 0 14.4 23.5 32.4 84.6 71.6 243.7
07/05 21:20 7.5 75 6.01 3.4 11 13 1013.1 0 14.3 23.5 32.3 84.4 71.3 242.6
07/05 21:10 7.5 75 6.01 3.4 11 11 1013.1 0 14.3 23.5 32.3 84.4 71.3 242.6
07/05 21:00 7.7 74 6 3.3 11 11 1013.1 0 14.3 23.4 32.2 84.1 71.0 241.6
07/05 20:50 7.9 72 5.92 3.2 11 11 1013.1 0 14.1 23.2 31.8 83.1 69.8 237.3
07/05 20:40 8 72 5.95 3.2 11 13 1013.1 0 14.2 23.2 31.9 83.3 70.1 238.4
07/05 20:30 8.2 71 5.95 3.2 11 13 1013.1 0 14.2 23.2 31.8 83.1 69.9 237.8
07/05 20:20 8.3 69 5.82 3 11 11 1013.1 0 13.9 23.0 31.3 81.6 68.1 231.6
07/05 20:10 8.4 69 5.86 3 11 13 1013.1 0 14.0 23.0 31.4 81.9 68.5 233.1
07/05 20:00 8.5 69 5.89 3.2 11 13 1013.1 0 14.0 23.0 31.5 82.1 68.8 234.2
07/05 19:50 8.8 67 5.83 3.1 13 15 1013.1 0 13.9 22.9 31.1 81.2 67.8 230.6
07/05 19:40 8.9 67 5.87 3.1 13 15 1013.1 0 14.0 22.9 31.2 81.5 68.2 232.1

Last Refresh: 08-May-2026 12:10:11

Bureau of Meteorology